Time;durP1;ratioP1;P1;durP2;ratioP2;P2;SDS_P1;SDS_P2;PMS_P1;PMS_P2;Temp;Humidity;BMP_temperature;BMP_pressure;BME280_temperature;BME280_humidity;BME280_pressure;Samples;Min_cycle;Max_cycle;Signal;HPM_P1;HPM_P2
2023/07/16 00:02:24;;;;;;;8.23;2.88;;;;;;;16.59;92.78;100840.00;4910630;29;20111;-54
2023/07/16 00:04:49;;;;;;;8.10;3.00;;;;;;;16.54;94.33;100837.38;4908934;29;20445;-53
2023/07/16 00:07:14;;;;;;;7.13;2.63;;;;;;;16.52;94.99;100850.53;4913583;29;20032;-54
2023/07/16 00:09:39;;;;;;;8.05;3.03;;;;;;;16.49;94.17;100841.75;4915727;29;20020;-54
2023/07/16 00:12:05;;;;;;;6.03;2.50;;;;;;;16.44;94.34;100846.16;4915158;29;20063;-54
2023/07/16 00:14:30;;;;;;;8.15;2.97;;;;;;;16.36;93.68;100856.66;4911283;29;20020;-53
2023/07/16 00:16:56;;;;;;;8.52;3.38;;;;;;;16.25;93.69;100855.78;4914903;29;20487;-54
2023/07/16 00:19:21;;;;;;;10.90;3.38;;;;;;;16.18;93.94;100852.28;4915420;29;20136;-54
2023/07/16 00:21:46;;;;;;;7.63;3.30;;;;;;;16.16;95.46;100857.53;4915325;29;20111;-54
2023/07/16 00:24:11;;;;;;;9.02;2.83;;;;;;;16.07;94.03;100860.16;4915229;29;20031;-54
2023/07/16 00:26:37;;;;;;;8.32;3.05;;;;;;;16.07;93.81;100860.16;4914798;29;20068;-53
2023/07/16 00:29:02;;;;;;;8.75;3.00;;;;;;;16.04;93.64;100861.91;4915221;29;20053;-54
2023/07/16 00:31:27;;;;;;;8.48;3.40;;;;;;;15.99;94.89;100848.78;4896888;29;20063;-54
2023/07/16 00:33:53;;;;;;;7.97;3.00;;;;;;;15.92;95.19;100854.91;4913513;29;20028;-53
2023/07/16 00:36:18;;;;;;;7.40;2.80;;;;;;;15.86;95.40;100862.75;4912393;29;20032;-53
2023/07/16 00:38:45;;;;;;;6.45;2.63;;;;;;;15.81;94.94;100861.00;4915050;29;20040;-54
2023/07/16 00:41:13;;;;;;;6.38;2.80;;;;;;;15.80;95.21;100859.25;4911987;29;20084;-53
2023/07/16 00:43:38;;;;;;;8.57;2.65;;;;;;;15.85;96.71;100861.00;4913906;29;20032;-54
2023/07/16 00:46:03;;;;;;;7.43;2.78;;;;;;;15.88;96.14;100861.88;4912158;29;20502;-53
2023/07/16 00:48:29;;;;;;;8.10;3.00;;;;;;;15.90;95.46;100860.16;4884615;29;20029;-53
2023/07/16 00:50:55;;;;;;;9.07;2.90;;;;;;;15.89;96.31;100868.00;4912345;29;20024;-54
2023/07/16 00:53:21;;;;;;;10.02;3.30;;;;;;;15.88;95.12;100866.28;4913439;29;20233;-54
2023/07/16 00:55:46;;;;;;;8.00;2.85;;;;;;;15.88;95.47;100861.00;4913600;29;20286;-52
2023/07/16 00:58:12;;;;;;;9.02;2.88;;;;;;;15.84;95.79;100860.13;4914097;29;20031;-54
2023/07/16 01:00:39;;;;;;;9.40;2.88;;;;;;;15.80;95.76;100859.25;4911757;29;20558;-54
2023/07/16 01:03:11;;;;;;;6.15;2.78;;;;;;;15.76;96.05;100860.06;4907930;29;20140;-54
2023/07/16 01:05:51;;;;;;;9.85;3.22;;;;;;;15.75;95.95;100858.31;4908179;29;20032;-54
2023/07/16 01:08:25;;;;;;;7.40;2.85;;;;;;;15.73;96.07;100864.44;4914388;29;20044;-53
2023/07/16 01:10:51;;;;;;;7.75;2.92;;;;;;;15.71;96.15;100860.94;4912982;29;20159;-54
2023/07/16 01:13:16;;;;;;;8.05;3.25;;;;;;;15.69;96.01;100860.06;4914453;29;20123;-54
2023/07/16 01:15:42;;;;;;;7.75;3.05;;;;;;;15.71;96.39;100867.06;4912959;29;20027;-52
2023/07/16 01:18:07;;;;;;;9.45;3.13;;;;;;;15.74;96.89;100859.22;4914400;29;20039;-53
2023/07/16 01:20:32;;;;;;;8.73;3.20;;;;;;;15.72;96.29;100858.31;4913027;29;20479;-53
2023/07/16 01:23:17;;;;;;;7.55;2.90;;;;;;;15.69;96.22;100858.31;4911901;29;20039;-54
2023/07/16 01:26:02;;;;;;;7.95;3.20;;;;;;;15.67;97.04;100860.06;4912837;29;20039;-53
2023/07/16 01:28:48;;;;;;;8.30;3.15;;;;;;;15.67;96.74;100853.91;4913761;29;20028;-54
2023/07/16 01:31:16;;;;;;;7.75;3.10;;;;;;;15.67;97.13;100846.03;4914367;29;20087;-54
2023/07/16 01:33:42;;;;;;;9.63;3.22;;;;;;;15.67;97.07;100854.81;4927112;29;20087;-53
2023/07/16 01:36:09;;;;;;;7.63;3.20;;;;;;;15.63;97.74;100848.66;4910385;29;20065;-54
2023/07/16 01:38:35;;;;;;;9.27;2.90;;;;;;;15.58;98.37;100845.16;4912270;29;20459;-53
2023/07/16 01:41:01;;;;;;;8.43;3.10;;;;;;;15.56;98.95;100843.38;4913562;29;20185;-53
2023/07/16 01:43:26;;;;;;;10.00;3.50;;;;;;;15.57;99.38;100842.50;4909937;29;20526;-52
2023/07/16 01:45:51;;;;;;;7.07;3.42;;;;;;;15.56;99.53;100843.38;4912491;29;20080;-54
2023/07/16 01:48:29;;;;;;;9.10;3.80;;;;;;;15.55;100.00;100852.13;4911252;29;20058;-53
2023/07/16 01:50:54;;;;;;;9.68;3.70;;;;;;;15.53;100.00;100859.13;4913053;29;20059;-53
2023/07/16 01:53:20;;;;;;;7.85;3.60;;;;;;;15.50;100.00;100853.84;4910740;29;20063;-53
2023/07/16 01:55:45;;;;;;;8.73;3.80;;;;;;;15.53;100.00;100859.13;4912199;29;20478;-53
2023/07/16 01:58:11;;;;;;;9.07;3.45;;;;;;;15.52;100.00;100847.72;4911314;29;20032;-54
2023/07/16 02:00:36;;;;;;;8.63;3.55;;;;;;;15.53;100.00;100846.00;4909641;29;20436;-54
2023/07/16 02:03:02;;;;;;;9.85;4.00;;;;;;;15.50;100.00;100841.63;4910619;29;20391;-54
2023/07/16 02:05:27;;;;;;;9.38;4.05;;;;;;;15.48;100.00;100851.22;4912421;29;20036;-54
2023/07/16 02:07:52;;;;;;;9.80;3.97;;;;;;;15.48;100.00;100852.13;4909331;29;20103;-54
2023/07/16 02:10:18;;;;;;;8.43;3.95;;;;;;;15.52;100.00;100846.88;4913607;29;20028;-54
2023/07/16 02:12:43;;;;;;;7.10;3.97;;;;;;;15.54;100.00;100850.38;4914654;29;20032;-54
2023/07/16 02:15:09;;;;;;;8.88;3.97;;;;;;;15.55;100.00;100846.88;4915876;29;20032;-54
2023/07/16 02:17:34;;;;;;;9.48;3.80;;;;;;;15.55;100.00;100850.38;4916622;29;20059;-54
2023/07/16 02:20:00;;;;;;;10.00;3.95;;;;;;;15.58;100.00;100850.41;4917655;29;20505;-54
2023/07/16 02:22:25;;;;;;;9.63;4.00;;;;;;;15.59;100.00;100848.66;4917536;29;20028;-54
2023/07/16 02:24:50;;;;;;;8.77;3.80;;;;;;;15.53;100.00;100856.50;4917703;29;20059;-54
2023/07/16 02:27:15;;;;;;;10.48;3.80;;;;;;;15.54;100.00;100861.78;4916943;29;20036;-53
2023/07/16 02:29:41;;;;;;;8.13;3.85;;;;;;;15.58;100.00;100862.63;4915804;29;20032;-53
2023/07/16 02:32:07;;;;;;;9.27;3.88;;;;;;;15.60;100.00;100860.91;4917828;29;20066;-54
2023/07/16 02:34:32;;;;;;;8.68;3.80;;;;;;;15.63;100.00;100871.44;4917551;29;20479;-54
2023/07/16 02:36:57;;;;;;;10.50;4.15;;;;;;;15.62;100.00;100864.41;4915912;29;20038;-54
2023/07/16 02:39:24;;;;;;;9.85;4.25;;;;;;;15.64;100.00;100873.16;4912331;29;20060;-54
2023/07/16 02:41:49;;;;;;;7.25;3.75;;;;;;;15.64;100.00;100874.06;4915522;29;20036;-54
2023/07/16 02:44:14;;;;;;;9.15;3.67;;;;;;;15.64;100.00;100867.91;4915499;29;20032;-54
2023/07/16 02:46:39;;;;;;;6.65;3.60;;;;;;;15.63;100.00;100876.69;4913880;29;20573;-54
2023/07/16 02:49:05;;;;;;;9.02;4.05;;;;;;;15.60;100.00;100879.31;4915316;29;20034;-54
2023/07/16 02:51:30;;;;;;;12.00;4.50;;;;;;;15.58;100.00;100871.41;4911451;29;20031;-54
2023/07/16 02:53:55;;;;;;;8.60;3.97;;;;;;;15.58;100.00;100876.66;4908258;29;20028;-54
2023/07/16 02:56:21;;;;;;;8.10;3.95;;;;;;;15.56;100.00;100869.66;4915853;29;20502;-54
2023/07/16 02:58:46;;;;;;;8.68;4.07;;;;;;;15.55;100.00;100881.03;4916551;29;20043;-54
2023/07/16 03:01:12;;;;;;;12.15;3.92;;;;;;;15.54;100.00;100881.88;4912751;29;20119;-54
2023/07/16 03:03:37;;;;;;;8.75;3.92;;;;;;;15.53;100.00;100881.00;4913171;29;20384;-54
2023/07/16 03:06:03;;;;;;;9.07;3.72;;;;;;;15.50;100.00;100883.63;4914087;29;20024;-54
2023/07/16 03:08:29;;;;;;;8.77;3.80;;;;;;;15.49;100.00;100884.50;4911947;29;20024;-54
2023/07/16 03:10:56;;;;;;;10.73;4.28;;;;;;;15.45;100.00;100891.50;4910053;29;20219;-54
2023/07/16 03:13:21;;;;;;;10.20;4.30;;;;;;;15.41;100.00;100887.09;4915281;29;20059;-54
2023/07/16 03:15:47;;;;;;;9.55;3.83;;;;;;;15.41;100.00;100892.34;4915236;29;20064;-54
2023/07/16 03:18:12;;;;;;;9.18;3.85;;;;;;;15.39;100.00;100891.44;4915747;29;20235;-54
2023/07/16 03:20:37;;;;;;;9.13;4.00;;;;;;;15.39;100.00;100907.19;4915455;29;20107;-54
2023/07/16 03:23:03;;;;;;;9.95;3.85;;;;;;;15.41;100.00;100902.84;4914244;29;20443;-54
2023/07/16 03:25:28;;;;;;;9.25;3.83;;;;;;;15.36;99.98;100903.69;4916413;29;20069;-54
2023/07/16 03:27:53;;;;;;;9.05;4.18;;;;;;;15.33;99.01;100901.94;4914438;29;20052;-54
2023/07/16 03:30:18;;;;;;;12.15;4.32;;;;;;;15.30;98.11;100901.91;4914849;29;20067;-54
2023/07/16 03:32:44;;;;;;;12.43;4.22;;;;;;;15.28;96.81;100907.16;4913276;29;20475;-54
2023/07/16 03:35:09;;;;;;;9.45;4.18;;;;;;;15.25;95.82;100908.88;4912394;29;20032;-54
2023/07/16 03:37:34;;;;;;;10.75;4.43;;;;;;;15.23;95.69;100910.63;4896268;29;20459;-54
2023/07/16 03:40:16;;;;;;;10.38;3.78;;;;;;;15.19;95.45;100909.72;4914441;29;20087;-54
2023/07/16 03:42:41;;;;;;;9.98;4.40;;;;;;;15.12;94.67;100914.06;4911985;29;20533;-54
2023/07/16 03:45:07;;;;;;;12.13;4.50;;;;;;;15.09;94.71;100916.69;4910350;29;20028;-54
2023/07/16 03:47:33;;;;;;;10.70;4.38;;;;;;;15.08;94.74;100917.53;4911565;29;20517;-54
2023/07/16 03:49:58;;;;;;;9.38;4.43;;;;;;;15.05;94.13;100919.28;4915515;29;20020;-54
2023/07/16 03:52:24;;;;;;;12.40;4.80;;;;;;;15.05;94.27;100919.28;4913327;29;20029;-54
2023/07/16 03:54:50;;;;;;;11.57;4.07;;;;;;;15.02;94.45;100925.38;4913144;29;20039;-54
2023/07/16 03:57:15;;;;;;;12.77;4.60;;;;;;;14.99;94.76;100927.09;4915572;29;20024;-54
2023/07/16 03:59:41;;;;;;;9.35;4.28;;;;;;;15.00;95.46;100936.72;4914537;29;20506;-54
2023/07/16 04:02:07;;;;;;;10.85;4.60;;;;;;;14.93;94.75;100938.44;4903998;29;20135;-54
2023/07/16 04:04:32;;;;;;;9.65;4.43;;;;;;;14.90;94.70;100941.94;4909851;29;20462;-54
2023/07/16 04:06:58;;;;;;;10.48;4.20;;;;;;;14.86;94.71;100939.25;4903839;29;20436;-54
2023/07/16 04:09:23;;;;;;;12.50;4.40;;;;;;;14.83;94.48;100947.09;4915762;29;20020;-54
2023/07/16 04:11:48;;;;;;;10.45;4.28;;;;;;;14.78;93.77;100942.69;4912660;29;20040;-54
2023/07/16 04:14:14;;;;;;;12.45;4.35;;;;;;;14.79;93.71;100946.22;4914996;29;20483;-54
2023/07/16 04:16:39;;;;;;;10.18;4.43;;;;;;;14.76;93.63;100952.31;4915845;29;20043;-54
2023/07/16 04:19:05;;;;;;;10.18;4.10;;;;;;;14.74;92.58;100961.91;4915798;29;20036;-54
2023/07/16 04:21:30;;;;;;;12.35;4.40;;;;;;;14.68;92.40;100961.84;4914668;29;20047;-54
2023/07/16 04:23:55;;;;;;;13.55;4.32;;;;;;;14.71;92.52;100967.09;4914813;29;20035;-54
2023/07/16 04:26:21;;;;;;;11.25;4.95;;;;;;;14.67;92.32;100973.22;4915313;29;20448;-54
2023/07/16 04:28:46;;;;;;;10.90;4.35;;;;;;;14.66;91.81;100978.47;4915269;29;20016;-53
2023/07/16 04:31:11;;;;;;;13.05;4.97;;;;;;;14.65;93.18;100982.81;4912108;29;20510;-53
2023/07/16 04:33:36;;;;;;;11.57;4.78;;;;;;;14.63;92.40;100981.94;4914196;29;20032;-54
2023/07/16 04:36:02;;;;;;;11.02;5.32;;;;;;;14.62;92.49;100982.78;4908710;29;20055;-54
2023/07/16 04:38:27;;;;;;;15.15;5.10;;;;;;;14.61;91.88;100988.84;4908130;29;20035;-54
2023/07/16 04:40:52;;;;;;;10.05;4.80;;;;;;;14.57;92.91;101000.16;4912002;29;20026;-54
2023/07/16 04:43:18;;;;;;;13.27;4.93;;;;;;;14.52;92.92;100994.88;4890926;29;20483;-54
2023/07/16 04:45:46;;;;;;;13.70;5.32;;;;;;;14.50;92.86;100996.63;4913629;29;20043;-54
2023/07/16 04:48:12;;;;;;;10.93;5.17;;;;;;;14.49;92.86;100994.00;4907493;29;20115;-53
2023/07/16 04:50:38;;;;;;;12.00;5.50;;;;;;;14.47;93.36;100998.31;4913972;29;20495;-54
2023/07/16 04:53:04;;;;;;;10.82;5.07;;;;;;;14.48;93.29;101003.56;4892069;29;20395;-54
2023/07/16 04:55:29;;;;;;;11.30;5.05;;;;;;;14.47;93.06;101008.81;4914102;29;20032;-53
2023/07/16 04:57:56;;;;;;;12.65;5.30;;;;;;;14.46;92.46;101009.69;4914548;29;20115;-54
2023/07/16 05:00:22;;;;;;;13.32;5.68;;;;;;;14.48;92.76;101010.56;4913064;29;20036;-53
2023/07/16 05:02:47;;;;;;;14.00;5.38;;;;;;;14.47;92.51;101008.81;4912726;29;20032;-53
2023/07/16 05:05:13;;;;;;;14.15;6.03;;;;;;;14.48;93.13;101007.94;4913023;29;20147;-53
2023/07/16 05:07:38;;;;;;;12.45;5.07;;;;;;;14.52;92.44;101009.75;4914065;29;20032;-54
2023/07/16 05:10:04;;;;;;;14.05;5.82;;;;;;;14.50;91.41;101008.88;4913860;29;20020;-53
2023/07/16 05:12:29;;;;;;;13.43;5.47;;;;;;;14.51;91.90;101018.47;4910568;29;20038;-53
2023/07/16 05:14:54;;;;;;;13.73;5.47;;;;;;;14.56;91.64;101015.03;4912556;29;20110;-52
2023/07/16 05:17:20;;;;;;;11.82;5.35;;;;;;;14.60;91.63;101021.19;4914085;29;20095;-53
2023/07/16 05:19:45;;;;;;;10.90;5.70;;;;;;;14.63;91.50;101020.34;4912232;29;20039;-53
2023/07/16 05:22:10;;;;;;;12.48;5.63;;;;;;;14.63;90.53;101021.25;4911031;29;20039;-53
2023/07/16 05:24:35;;;;;;;11.85;5.45;;;;;;;14.66;90.12;101021.28;4913725;29;20510;-53
2023/07/16 05:27:01;;;;;;;11.20;5.93;;;;;;;14.70;89.37;101025.69;4908140;29;20063;-53
2023/07/16 05:29:27;;;;;;;12.27;5.28;;;;;;;14.73;89.96;101023.09;4914498;29;20383;-53
2023/07/16 05:31:52;;;;;;;14.55;5.43;;;;;;;14.75;89.33;101023.97;4911129;29;20035;-53
2023/07/16 05:34:17;;;;;;;12.23;5.72;;;;;;;14.80;89.71;101029.25;4911461;29;20537;-53
2023/07/16 05:36:46;;;;;;;10.60;5.82;;;;;;;14.83;88.67;101028.41;4912786;29;20036;-53
2023/07/16 05:39:12;;;;;;;11.50;5.65;;;;;;;14.89;88.84;101031.13;4901553;29;20055;-53
2023/07/16 05:41:39;;;;;;;12.35;5.72;;;;;;;14.92;88.85;101028.53;4909292;29;20495;-53
2023/07/16 05:44:04;;;;;;;12.05;5.70;;;;;;;14.96;88.42;101040.78;4914335;29;20032;-51
2023/07/16 05:46:29;;;;;;;12.30;5.65;;;;;;;15.01;87.71;101036.47;4910881;29;20048;-53
2023/07/16 05:48:55;;;;;;;13.13;5.82;;;;;;;15.04;87.99;101035.63;4908047;29;20035;-53
2023/07/16 05:51:20;;;;;;;15.85;5.43;;;;;;;15.10;87.41;101030.41;4912107;29;20541;-53
2023/07/16 05:53:45;;;;;;;16.73;5.93;;;;;;;15.19;86.59;101042.72;4896506;29;20028;-53
2023/07/16 05:56:10;;;;;;;12.55;5.78;;;;;;;15.22;86.75;101035.75;4912248;29;20032;-53
2023/07/16 05:58:36;;;;;;;14.95;6.28;;;;;;;15.27;86.60;101043.66;4911604;29;20502;-53
2023/07/16 06:01:01;;;;;;;12.23;6.13;;;;;;;15.34;86.06;101047.19;4909701;29;20083;-53
2023/07/16 06:03:26;;;;;;;11.43;6.03;;;;;;;15.42;84.82;101048.13;4907659;29;20052;-55
2023/07/16 06:05:52;;;;;;;12.48;5.70;;;;;;;15.52;83.65;101056.97;4910467;29;20079;-53
2023/07/16 06:08:17;;;;;;;16.52;6.35;;;;;;;15.58;83.20;101059.63;4897859;29;20488;-53
2023/07/16 06:10:42;;;;;;;17.55;6.50;;;;;;;15.58;83.73;101062.25;4904632;29;20028;-53
2023/07/16 06:13:07;;;;;;;13.32;5.72;;;;;;;15.63;84.12;101060.53;4911943;29;20061;-52
2023/07/16 06:15:33;;;;;;;11.88;5.80;;;;;;;15.69;84.07;101052.69;4912908;29;20611;-53
2023/07/16 06:17:58;;;;;;;15.73;6.97;;;;;;;15.74;82.97;101061.50;4911833;29;20055;-52
2023/07/16 06:20:23;;;;;;;15.65;6.43;;;;;;;15.80;83.14;101058.94;4910690;29;20418;-53
2023/07/16 06:22:49;;;;;;;13.40;6.22;;;;;;;15.87;82.92;101058.94;4914170;29;20435;-53
2023/07/16 06:25:14;;;;;;;14.27;6.78;;;;;;;15.93;83.68;101067.75;4911172;29;20032;-53
2023/07/16 06:27:39;;;;;;;13.35;6.20;;;;;;;16.01;82.42;101064.28;4911534;29;20032;-53
2023/07/16 06:30:05;;;;;;;14.43;6.50;;;;;;;16.06;81.13;101060.81;4902257;29;20495;-53
2023/07/16 06:32:31;;;;;;;15.00;6.63;;;;;;;16.10;81.25;101067.81;4913374;29;20039;-52
2023/07/16 06:34:56;;;;;;;12.68;6.32;;;;;;;16.16;81.44;101069.59;4913159;29;20032;-52
2023/07/16 06:37:23;;;;;;;13.77;6.25;;;;;;;16.21;79.33;101085.41;4916312;29;20059;-53
2023/07/16 06:39:49;;;;;;;14.18;6.22;;;;;;;16.24;80.84;101081.03;4911916;29;20021;-52
2023/07/16 06:42:14;;;;;;;13.63;6.10;;;;;;;16.30;82.17;101067.03;4908811;29;20035;-52
2023/07/16 06:44:39;;;;;;;11.20;5.95;;;;;;;16.36;80.26;101080.19;4910707;29;20047;-53
2023/07/16 06:47:05;;;;;;;15.93;6.30;;;;;;;16.42;79.86;101074.94;4910601;29;20411;-53
2023/07/16 06:49:31;;;;;;;13.93;6.65;;;;;;;16.50;80.13;101089.00;4910549;29;20040;-52
2023/07/16 06:51:56;;;;;;;13.65;6.45;;;;;;;16.55;78.43;101090.78;4907173;29;20024;-52
2023/07/16 06:54:21;;;;;;;18.55;6.72;;;;;;;16.63;77.80;101091.69;4911742;29;20031;-52
2023/07/16 06:56:47;;;;;;;14.57;6.57;;;;;;;16.68;78.58;101087.28;4911206;29;20024;-52
2023/07/16 06:59:12;;;;;;;14.23;6.55;;;;;;;16.74;79.33;101103.09;4898725;29;20347;-52
2023/07/16 07:01:37;;;;;;;12.15;6.75;;;;;;;16.79;78.40;101095.22;4913215;29;20028;-52
2023/07/16 07:04:03;;;;;;;14.18;6.57;;;;;;;16.83;77.97;101103.13;4915714;29;20099;-51
2023/07/16 07:06:28;;;;;;;12.80;6.55;;;;;;;16.88;77.88;101105.78;4914890;29;20032;-53
2023/07/16 07:08:53;;;;;;;15.10;6.97;;;;;;;16.94;78.59;101104.94;4916115;29;20020;-53
2023/07/16 07:11:19;;;;;;;14.18;6.90;;;;;;;17.00;78.53;101108.47;4913049;29;20611;-52
2023/07/16 07:13:44;;;;;;;14.00;5.35;;;;;;;17.13;77.10;101101.47;4907580;29;20079;-53
2023/07/16 07:16:10;;;;;;;13.95;6.72;;;;;;;17.16;75.70;101113.72;4905870;29;20115;-52
2023/07/16 07:18:35;;;;;;;16.05;7.07;;;;;;;17.13;77.41;101121.63;4906829;29;20055;-53
2023/07/16 07:21:00;;;;;;;15.45;6.32;;;;;;;17.28;75.96;101124.28;4910142;29;20111;-53
2023/07/16 07:23:25;;;;;;;15.02;6.80;;;;;;;17.27;77.41;101119.00;4906701;29;20365;-52
2023/07/16 07:25:51;;;;;;;13.80;7.10;;;;;;;17.33;75.83;101124.28;4905415;29;20044;-52
2023/07/16 07:28:19;;;;;;;14.35;7.70;;;;;;;17.38;77.47;101122.53;4903000;29;20121;-52
2023/07/16 07:30:45;;;;;;;15.93;6.93;;;;;;;17.53;75.98;101125.13;4904534;29;20403;-52
2023/07/16 07:33:10;;;;;;;16.13;6.95;;;;;;;17.55;76.47;101133.94;4907891;29;20039;-52
2023/07/16 07:35:36;;;;;;;14.23;6.53;;;;;;;17.56;75.01;101126.91;4905840;29;20052;-53
2023/07/16 07:38:01;;;;;;;14.02;7.25;;;;;;;17.59;75.95;101132.16;4903603;29;20039;-52
2023/07/16 07:40:26;;;;;;;14.10;7.35;;;;;;;17.55;74.30;101125.13;4909333;29;20039;-52
2023/07/16 07:42:52;;;;;;;15.52;7.18;;;;;;;17.67;75.03;101129.50;4908097;29;20083;-52
2023/07/16 07:45:17;;;;;;;13.57;7.03;;;;;;;17.79;75.86;101140.06;4903759;29;20470;-52
2023/07/16 07:47:42;;;;;;;14.23;6.53;;;;;;;17.86;74.34;101133.88;4903995;29;20055;-52
2023/07/16 07:50:08;;;;;;;17.23;7.78;;;;;;;17.92;75.47;101142.72;4907236;29;20028;-52
2023/07/16 07:52:33;;;;;;;14.18;6.85;;;;;;;18.00;76.05;101136.53;4911132;29;20024;-52
2023/07/16 07:54:59;;;;;;;12.63;6.75;;;;;;;18.07;76.04;101140.00;4907168;29;20032;-52
2023/07/16 07:57:24;;;;;;;13.60;6.70;;;;;;;18.16;73.56;101140.00;4902947;29;20095;-52
2023/07/16 07:59:51;;;;;;;13.40;6.68;;;;;;;18.16;73.64;101140.00;4902169;29;20534;-52
2023/07/16 08:02:18;;;;;;;18.25;7.10;;;;;;;18.21;73.34;101132.94;4908925;29;20362;-52
2023/07/16 08:04:44;;;;;;;14.75;7.38;;;;;;;18.34;73.45;101128.50;4905956;29;20475;-52
2023/07/16 08:07:09;;;;;;;13.90;6.35;;;;;;;18.42;73.65;101136.38;4909911;29;20035;-52
2023/07/16 08:09:34;;;;;;;10.57;5.65;;;;;;;18.54;71.41;101140.75;4902382;29;20056;-52
2023/07/16 08:11:59;;;;;;;12.48;6.40;;;;;;;18.62;72.68;101140.69;4904297;29;20047;-52
2023/07/16 08:14:25;;;;;;;12.48;6.05;;;;;;;18.71;74.60;101135.34;4906514;29;20020;-52
2023/07/16 08:16:50;;;;;;;13.02;6.63;;;;;;;18.75;71.50;101142.38;4905217;29;20438;-52
2023/07/16 08:19:15;;;;;;;12.48;6.38;;;;;;;18.85;70.04;101141.44;4904115;29;20036;-52
2023/07/16 08:21:40;;;;;;;11.43;5.88;;;;;;;18.81;71.47;101142.34;4905137;29;20031;-52
2023/07/16 08:24:06;;;;;;;14.07;6.40;;;;;;;18.86;71.28;101143.25;4903305;29;20032;-52
2023/07/16 08:26:32;;;;;;;11.65;5.70;;;;;;;19.00;71.59;101153.72;4905744;29;20036;-52
2023/07/16 08:28:57;;;;;;;14.25;6.30;;;;;;;19.11;69.89;101153.63;4907739;29;20024;-52
2023/07/16 08:31:23;;;;;;;13.18;6.57;;;;;;;19.13;69.05;101138.66;4904079;29;20036;-52
2023/07/16 08:33:48;;;;;;;12.35;6.13;;;;;;;19.23;69.92;101143.00;4917005;29;20495;-52
2023/07/16 08:36:13;;;;;;;15.18;6.45;;;;;;;19.36;68.50;101149.03;4911166;29;20028;-52
2023/07/16 08:38:39;;;;;;;12.05;5.68;;;;;;;19.47;68.51;101143.69;4911047;29;20032;-52
2023/07/16 08:41:04;;;;;;;13.68;6.20;;;;;;;19.57;68.90;101158.56;4911370;29;20032;-52
2023/07/16 08:43:32;;;;;;;11.27;6.10;;;;;;;19.72;68.58;101152.25;4904580;29;20042;-52
2023/07/16 08:45:58;;;;;;;14.77;6.17;;;;;;;19.86;67.90;101153.94;4909823;29;20116;-53
2023/07/16 08:48:24;;;;;;;12.52;5.97;;;;;;;19.91;66.04;101149.47;4912825;29;20134;-53
2023/07/16 08:50:50;;;;;;;10.35;5.57;;;;;;;19.89;68.18;101153.91;4915376;29;20053;-53
2023/07/16 08:53:16;;;;;;;12.32;5.82;;;;;;;19.94;67.72;101154.72;4914476;29;20455;-52
2023/07/16 08:55:44;;;;;;;10.48;5.40;;;;;;;20.13;68.52;101163.34;4913845;29;20031;-53
2023/07/16 08:58:09;;;;;;;10.85;6.05;;;;;;;20.27;66.02;101157.91;4913881;29;20036;-53
2023/07/16 09:00:35;;;;;;;10.88;5.40;;;;;;;20.25;64.54;101155.28;4914710;29;20376;-52
2023/07/16 09:03:01;;;;;;;10.73;5.43;;;;;;;20.26;65.29;101157.03;4914714;29;20059;-53
2023/07/16 09:05:29;;;;;;;11.43;4.60;;;;;;;20.24;64.48;101172.03;4913478;29;20035;-52
2023/07/16 09:07:54;;;;;;;13.48;5.55;;;;;;;20.22;66.12;101168.53;4914614;29;20490;-52
2023/07/16 09:10:19;;;;;;;11.43;5.30;;;;;;;20.32;65.19;101169.31;4914711;29;20030;-52
2023/07/16 09:12:46;;;;;;;11.35;5.70;;;;;;;20.52;66.96;101177.00;4913953;29;20375;-52
2023/07/16 09:15:13;;;;;;;11.85;6.07;;;;;;;20.61;64.40;101171.59;4913016;29;20072;-52
2023/07/16 09:17:38;;;;;;;10.75;5.30;;;;;;;20.53;62.68;101177.91;4912495;29;20059;-52
2023/07/16 09:20:08;;;;;;;10.40;5.00;;;;;;;20.40;64.15;101169.22;4913952;29;20080;-53
2023/07/16 09:22:34;;;;;;;11.23;4.93;;;;;;;20.41;62.67;101163.03;4914824;29;20035;-52
2023/07/16 09:25:02;;;;;;;11.40;5.30;;;;;;;20.39;63.86;101168.34;4914677;29;20028;-53
2023/07/16 09:27:29;;;;;;;10.43;5.10;;;;;;;20.26;64.98;101175.56;4914599;29;20032;-52
2023/07/16 09:29:54;;;;;;;13.07;5.40;;;;;;;20.31;66.20;101170.22;4914495;29;20047;-52
2023/07/16 09:32:20;;;;;;;11.80;5.70;;;;;;;20.51;65.49;101169.97;4913837;29;20119;-52
2023/07/16 09:34:49;;;;;;;9.05;5.13;;;;;;;20.62;65.80;101177.75;4914489;29;20502;-52
2023/07/16 09:37:14;;;;;;;;;;;;;;;20.74;63.01;101192.66;4914745;29;20491;-52
2023/07/16 09:39:41;;;;;;;11.00;4.90;;;;;;;20.72;62.01;101189.16;4902089;29;19990;-51
2023/07/16 09:42:07;;;;;;;9.68;5.05;;;;;;;20.64;62.57;101181.28;4914202;29;20280;-52
2023/07/16 09:44:33;;;;;;;9.82;5.30;;;;;;;20.42;62.85;101184.19;4914087;29;20094;-52
2023/07/16 09:46:58;;;;;;;10.23;4.78;;;;;;;20.39;63.65;101180.69;4913031;29;20044;-52
2023/07/16 09:49:24;;;;;;;11.82;5.53;;;;;;;20.47;62.76;101185.00;4914254;29;20039;-52
2023/07/16 09:51:55;;;;;;;9.20;4.93;;;;;;;20.46;61.97;101188.53;4914277;29;20499;-52
2023/07/16 09:54:21;;;;;;;8.77;4.75;;;;;;;20.38;62.27;101194.81;4914067;29;20024;-51
2023/07/16 09:56:50;;;;;;;8.85;4.38;;;;;;;20.36;60.76;101216.00;4913216;29;20135;-52
2023/07/16 09:59:19;;;;;;;10.70;5.03;;;;;;;20.12;63.41;101203.94;4913829;29;20164;-51
2023/07/16 10:01:45;;;;;;;;;;;;;;;20.04;63.24;101217.22;4914393;29;20090;-49
2023/07/16 10:04:19;;;;;;;8.13;4.53;;;;;;;20.19;63.63;101210.03;4912678;29;20010;-52
2023/07/16 10:06:55;;;;;;;10.07;5.22;;;;;;;20.26;63.98;101201.13;4912604;29;20139;-51
2023/07/16 10:09:36;;;;;;;9.18;5.30;;;;;;;20.27;63.18;101216.97;4913919;29;20020;-51
2023/07/16 10:12:28;;;;;;;10.02;5.10;;;;;;;20.41;63.86;101202.75;4913165;29;20454;-50
2023/07/16 10:14:56;;;;;;;11.93;5.53;;;;;;;20.65;64.14;101205.09;4910489;29;20044;-52
2023/07/16 10:17:26;;;;;;;10.70;4.93;;;;;;;20.72;62.17;101210.34;4913799;29;20051;-50
2023/07/16 10:19:55;;;;;;;10.23;5.50;;;;;;;20.64;61.67;101223.66;4913060;29;20036;-51
2023/07/16 10:22:38;;;;;;;10.15;4.82;;;;;;;20.66;63.60;101222.75;4912507;29;20036;-51
2023/07/16 10:25:18;;;;;;;9.40;4.88;;;;;;;20.71;63.64;101224.47;4913863;29;20562;-50
2023/07/16 10:27:45;;;;;;;10.13;4.88;;;;;;;20.70;62.48;101231.53;4913573;29;20035;-52
2023/07/16 10:30:11;;;;;;;10.27;5.05;;;;;;;20.77;63.88;101234.97;4911344;29;20031;-50
2023/07/16 10:32:37;;;;;;;10.75;5.07;;;;;;;20.86;63.53;101237.53;4912975;29;20514;-51
2023/07/16 10:35:04;;;;;;;9.85;4.80;;;;;;;20.95;63.18;101231.22;4917638;29;20076;-50
2023/07/16 10:37:30;;;;;;;10.55;5.10;;;;;;;20.94;62.36;101232.13;4915546;29;20490;-52
2023/07/16 10:39:59;;;;;;;9.82;5.60;;;;;;;21.12;63.37;101231.00;4917523;29;20039;-50
2023/07/16 10:42:26;;;;;;;10.55;4.97;;;;;;;21.30;61.30;101232.50;4900367;29;20115;-52
2023/07/16 10:44:53;;;;;;;9.15;5.07;;;;;;;21.47;63.33;101226.97;4915935;29;20031;-52
2023/07/16 10:47:35;;;;;;;9.25;4.72;;;;;;;21.70;62.52;101253.13;4916973;29;20052;-52
2023/07/16 10:50:09;;;;;;;11.52;5.32;;;;;;;21.72;61.30;101235.41;4917242;29;20028;-51
2023/07/16 10:52:35;;;;;;;12.13;5.15;;;;;;;21.86;61.44;101240.50;4917398;29;20024;-51
2023/07/16 10:55:01;;;;;;;11.07;5.07;;;;;;;21.82;59.21;101242.31;4916615;29;20028;-50
2023/07/16 10:57:27;;;;;;;8.13;4.65;;;;;;;21.75;60.07;101245.09;4917113;29;20072;-51
2023/07/16 10:59:57;;;;;;;8.13;4.43;;;;;;;21.58;60.89;101240.06;4917125;29;20032;-51
2023/07/16 11:02:24;;;;;;;9.68;4.60;;;;;;;21.48;58.70;101252.56;4916885;29;20538;-51
2023/07/16 11:04:50;;;;;;;8.15;4.70;;;;;;;21.33;59.01;101259.84;4917074;29;20156;-51
2023/07/16 11:07:16;;;;;;;7.13;4.35;;;;;;;21.37;60.27;101269.50;4916800;29;20479;-51
2023/07/16 11:09:47;;;;;;;8.27;4.60;;;;;;;21.30;59.57;101261.66;4915320;29;20052;-51
2023/07/16 11:12:14;;;;;;;8.48;4.68;;;;;;;21.02;60.32;101268.22;4915710;29;20044;-51
2023/07/16 11:14:47;;;;;;;9.90;5.00;;;;;;;20.98;60.55;101269.13;4916965;29;20024;-50
2023/07/16 11:17:13;;;;;;;9.20;4.78;;;;;;;20.89;60.62;101271.91;4916722;29;20402;-51